sensor_id;sensor_type;location;lat;lon;timestamp;pressure;altitude;pressure_sealevel;temperature;humidity
46718;BME280;32448;44.960;-0.698;2023-01-29T00:01:58;102636.63;;;3.83;100.00
46718;BME280;32448;44.960;-0.698;2023-01-29T00:04:26;102645.59;;;3.76;100.00
46718;BME280;32448;44.960;-0.698;2023-01-29T00:06:53;102643.13;;;3.78;100.00
46718;BME280;32448;44.960;-0.698;2023-01-29T00:09:20;102649.78;;;3.74;100.00
46718;BME280;32448;44.960;-0.698;2023-01-29T00:11:48;102647.06;;;3.73;100.00
46718;BME280;32448;44.960;-0.698;2023-01-29T00:14:15;102641.91;;;3.73;100.00
46718;BME280;32448;44.960;-0.698;2023-01-29T00:16:43;102650.69;;;3.75;100.00
46718;BME280;32448;44.960;-0.698;2023-01-29T00:19:10;102639.44;;;3.74;100.00
46718;BME280;32448;44.960;-0.698;2023-01-29T00:21:38;102644.38;;;3.71;100.00
46718;BME280;32448;44.960;-0.698;2023-01-29T00:24:05;102643.72;;;3.74;100.00
46718;BME280;32448;44.960;-0.698;2023-01-29T00:26:33;102648.28;;;3.66;100.00
46718;BME280;32448;44.960;-0.698;2023-01-29T00:29:00;102635.47;;;3.56;100.00
46718;BME280;32448;44.960;-0.698;2023-01-29T00:31:28;102636.59;;;3.59;100.00
46718;BME280;32448;44.960;-0.698;2023-01-29T00:33:57;102639.72;;;3.55;100.00
46718;BME280;32448;44.960;-0.698;2023-01-29T00:36:25;102634.00;;;3.59;100.00
46718;BME280;32448;44.960;-0.698;2023-01-29T00:38:57;102649.53;;;3.59;100.00
46718;BME280;32448;44.960;-0.698;2023-01-29T00:41:30;102647.38;;;3.54;100.00
46718;BME280;32448;44.960;-0.698;2023-01-29T00:44:16;102634.78;;;3.47;100.00
46718;BME280;32448;44.960;-0.698;2023-01-29T00:47:04;102643.34;;;3.57;100.00
46718;BME280;32448;44.960;-0.698;2023-01-29T00:49:51;102627.56;;;3.43;100.00
46718;BME280;32448;44.960;-0.698;2023-01-29T00:52:19;102630.28;;;3.56;100.00
46718;BME280;32448;44.960;-0.698;2023-01-29T00:54:56;102626.47;;;3.51;100.00
46718;BME280;32448;44.960;-0.698;2023-01-29T00:57:26;102624.78;;;3.40;100.00
46718;BME280;32448;44.960;-0.698;2023-01-29T00:59:54;102618.03;;;3.30;100.00
46718;BME280;32448;44.960;-0.698;2023-01-29T01:02:23;102626.47;;;3.39;100.00
46718;BME280;32448;44.960;-0.698;2023-01-29T01:05:11;102628.94;;;3.49;100.00
46718;BME280;32448;44.960;-0.698;2023-01-29T01:07:50;102636.47;;;3.46;100.00
46718;BME280;32448;44.960;-0.698;2023-01-29T01:10:25;102630.06;;;3.41;100.00
46718;BME280;32448;44.960;-0.698;2023-01-29T01:12:56;102632.19;;;3.47;100.00
46718;BME280;32448;44.960;-0.698;2023-01-29T01:15:27;102638.03;;;3.44;100.00
46718;BME280;32448;44.960;-0.698;2023-01-29T01:17:57;102619.91;;;3.33;100.00
46718;BME280;32448;44.960;-0.698;2023-01-29T01:20:27;102624.28;;;3.34;100.00
46718;BME280;32448;44.960;-0.698;2023-01-29T01:22:56;102634.22;;;3.39;100.00
46718;BME280;32448;44.960;-0.698;2023-01-29T01:25:25;102622.28;;;3.29;100.00
46718;BME280;32448;44.960;-0.698;2023-01-29T01:27:55;102629.25;;;3.31;100.00
46718;BME280;32448;44.960;-0.698;2023-01-29T01:30:23;102637.22;;;3.34;100.00
46718;BME280;32448;44.960;-0.698;2023-01-29T01:32:51;102630.25;;;3.33;100.00
46718;BME280;32448;44.960;-0.698;2023-01-29T01:35:19;102621.38;;;3.29;100.00
46718;BME280;32448;44.960;-0.698;2023-01-29T01:37:46;102623.50;;;3.35;100.00
46718;BME280;32448;44.960;-0.698;2023-01-29T01:40:16;102634.63;;;3.34;100.00
46718;BME280;32448;44.960;-0.698;2023-01-29T01:42:53;102633.59;;;3.20;100.00
46718;BME280;32448;44.960;-0.698;2023-01-29T01:45:32;102648.53;;;3.24;100.00
46718;BME280;32448;44.960;-0.698;2023-01-29T01:50:44;102650.47;;;3.26;100.00
46718;BME280;32448;44.960;-0.698;2023-01-29T01:53:17;102632.47;;;3.16;100.00
46718;BME280;32448;44.960;-0.698;2023-01-29T01:55:50;102656.41;;;3.25;100.00
46718;BME280;32448;44.960;-0.698;2023-01-29T01:58:27;102663.72;;;3.19;100.00
46718;BME280;32448;44.960;-0.698;2023-01-29T02:00:57;102661.00;;;3.18;100.00
46718;BME280;32448;44.960;-0.698;2023-01-29T02:03:27;102659.97;;;3.16;100.00
46718;BME280;32448;44.960;-0.698;2023-01-29T02:06:16;102659.53;;;3.21;100.00
46718;BME280;32448;44.960;-0.698;2023-01-29T02:09:06;102661.09;;;3.08;100.00
46718;BME280;32448;44.960;-0.698;2023-01-29T02:11:53;102668.38;;;3.13;100.00
46718;BME280;32448;44.960;-0.698;2023-01-29T02:14:21;102662.69;;;3.17;100.00
46718;BME280;32448;44.960;-0.698;2023-01-29T02:16:48;102666.06;;;3.16;100.00
46718;BME280;32448;44.960;-0.698;2023-01-29T02:19:40;102664.25;;;3.15;100.00
46718;BME280;32448;44.960;-0.698;2023-01-29T02:28:18;102664.50;;;3.18;100.00
46718;BME280;32448;44.960;-0.698;2023-01-29T02:31:26;102662.53;;;3.04;100.00
46718;BME280;32448;44.960;-0.698;2023-01-29T02:34:10;102675.69;;;3.07;100.00
46718;BME280;32448;44.960;-0.698;2023-01-29T02:36:45;102655.75;;;2.95;100.00
46718;BME280;32448;44.960;-0.698;2023-01-29T02:39:33;102637.63;;;2.83;100.00
46718;BME280;32448;44.960;-0.698;2023-01-29T02:45:37;102673.56;;;2.91;100.00
46718;BME280;32448;44.960;-0.698;2023-01-29T02:48:00;102663.50;;;2.95;100.00
46718;BME280;32448;44.960;-0.698;2023-01-29T02:50:41;102665.38;;;2.85;100.00
46718;BME280;32448;44.960;-0.698;2023-01-29T02:53:16;102681.00;;;2.99;100.00
46718;BME280;32448;44.960;-0.698;2023-01-29T02:55:53;102675.13;;;2.89;100.00
46718;BME280;32448;44.960;-0.698;2023-01-29T02:58:40;102670.53;;;2.85;100.00
46718;BME280;32448;44.960;-0.698;2023-01-29T03:01:14;102675.31;;;2.81;100.00
46718;BME280;32448;44.960;-0.698;2023-01-29T03:03:47;102665.13;;;2.82;100.00
46718;BME280;32448;44.960;-0.698;2023-01-29T03:06:22;102658.03;;;2.80;100.00
46718;BME280;32448;44.960;-0.698;2023-01-29T03:08:56;102679.72;;;2.82;100.00
46718;BME280;32448;44.960;-0.698;2023-01-29T03:11:28;102676.59;;;2.86;100.00
46718;BME280;32448;44.960;-0.698;2023-01-29T03:14:07;102662.66;;;2.84;100.00
46718;BME280;32448;44.960;-0.698;2023-01-29T03:16:44;102631.31;;;2.58;100.00
46718;BME280;32448;44.960;-0.698;2023-01-29T03:19:29;102676.34;;;2.83;100.00
46718;BME280;32448;44.960;-0.698;2023-01-29T03:22:04;102669.13;;;2.79;100.00
46718;BME280;32448;44.960;-0.698;2023-01-29T03:24:41;102667.03;;;2.85;100.00
46718;BME280;32448;44.960;-0.698;2023-01-29T03:27:36;102675.56;;;2.84;100.00
46718;BME280;32448;44.960;-0.698;2023-01-29T03:30:33;102678.34;;;2.75;100.00
46718;BME280;32448;44.960;-0.698;2023-01-29T03:33:35;102674.34;;;2.69;100.00
46718;BME280;32448;44.960;-0.698;2023-01-29T03:36:09;102679.41;;;2.67;100.00
46718;BME280;32448;44.960;-0.698;2023-01-29T03:38:39;102673.38;;;2.56;100.00
46718;BME280;32448;44.960;-0.698;2023-01-29T03:41:13;102675.91;;;2.67;100.00
46718;BME280;32448;44.960;-0.698;2023-01-29T03:44:09;102667.25;;;2.66;100.00
46718;BME280;32448;44.960;-0.698;2023-01-29T03:46:48;102683.00;;;2.69;100.00
46718;BME280;32448;44.960;-0.698;2023-01-29T03:49:31;102681.31;;;2.70;100.00
46718;BME280;32448;44.960;-0.698;2023-01-29T03:52:16;102680.72;;;2.62;100.00
46718;BME280;32448;44.960;-0.698;2023-01-29T03:57:34;102672.41;;;2.66;100.00
46718;BME280;32448;44.960;-0.698;2023-01-29T04:00:20;102685.47;;;2.68;100.00
46718;BME280;32448;44.960;-0.698;2023-01-29T04:03:12;102672.72;;;2.59;100.00
46718;BME280;32448;44.960;-0.698;2023-01-29T04:05:48;102668.22;;;2.56;100.00
46718;BME280;32448;44.960;-0.698;2023-01-29T04:08:27;102679.81;;;2.62;100.00
46718;BME280;32448;44.960;-0.698;2023-01-29T04:11:05;102685.63;;;2.59;100.00
46718;BME280;32448;44.960;-0.698;2023-01-29T04:13:35;102683.53;;;2.65;100.00
46718;BME280;32448;44.960;-0.698;2023-01-29T04:16:05;102683.66;;;2.67;100.00
46718;BME280;32448;44.960;-0.698;2023-01-29T04:18:59;102676.16;;;2.70;100.00
46718;BME280;32448;44.960;-0.698;2023-01-29T04:21:32;102680.28;;;2.68;100.00
46718;BME280;32448;44.960;-0.698;2023-01-29T04:24:00;102684.94;;;2.72;100.00
46718;BME280;32448;44.960;-0.698;2023-01-29T04:29:39;102690.28;;;2.63;100.00
46718;BME280;32448;44.960;-0.698;2023-01-29T04:35:13;102690.03;;;2.60;100.00
46718;BME280;32448;44.960;-0.698;2023-01-29T04:37:49;102691.44;;;2.56;100.00
46718;BME280;32448;44.960;-0.698;2023-01-29T04:50:37;102679.09;;;2.52;100.00
46718;BME280;32448;44.960;-0.698;2023-01-29T04:53:14;102683.84;;;2.58;100.00
46718;BME280;32448;44.960;-0.698;2023-01-29T04:55:48;102678.31;;;2.53;100.00
46718;BME280;32448;44.960;-0.698;2023-01-29T04:58:27;102677.28;;;2.51;100.00
46718;BME280;32448;44.960;-0.698;2023-01-29T05:00:58;102675.13;;;2.46;100.00
46718;BME280;32448;44.960;-0.698;2023-01-29T05:03:29;102659.69;;;2.36;100.00
46718;BME280;32448;44.960;-0.698;2023-01-29T05:05:59;102684.66;;;2.47;100.00
46718;BME280;32448;44.960;-0.698;2023-01-29T05:08:29;102686.84;;;2.52;100.00
46718;BME280;32448;44.960;-0.698;2023-01-29T05:10:58;102681.19;;;2.46;100.00
46718;BME280;32448;44.960;-0.698;2023-01-29T05:13:28;102671.03;;;2.38;100.00
46718;BME280;32448;44.960;-0.698;2023-01-29T05:16:12;102678.34;;;2.43;100.00
46718;BME280;32448;44.960;-0.698;2023-01-29T05:18:41;102685.84;;;2.40;100.00
46718;BME280;32448;44.960;-0.698;2023-01-29T05:21:09;102690.50;;;2.34;100.00
46718;BME280;32448;44.960;-0.698;2023-01-29T05:23:36;102671.31;;;2.31;100.00
46718;BME280;32448;44.960;-0.698;2023-01-29T05:26:04;102665.75;;;2.36;100.00
46718;BME280;32448;44.960;-0.698;2023-01-29T05:28:32;102682.53;;;2.31;100.00
46718;BME280;32448;44.960;-0.698;2023-01-29T05:31:00;102688.44;;;2.40;100.00
46718;BME280;32448;44.960;-0.698;2023-01-29T05:33:29;102669.34;;;2.38;100.00
46718;BME280;32448;44.960;-0.698;2023-01-29T05:35:58;102676.97;;;2.37;100.00
46718;BME280;32448;44.960;-0.698;2023-01-29T05:38:25;102666.38;;;2.34;100.00
46718;BME280;32448;44.960;-0.698;2023-01-29T05:40:52;102670.59;;;2.43;100.00
46718;BME280;32448;44.960;-0.698;2023-01-29T05:43:24;102676.56;;;2.42;100.00
46718;BME280;32448;44.960;-0.698;2023-01-29T05:45:56;102681.34;;;2.38;100.00
46718;BME280;32448;44.960;-0.698;2023-01-29T05:48:24;102688.97;;;2.36;100.00
46718;BME280;32448;44.960;-0.698;2023-01-29T05:50:53;102693.09;;;2.34;100.00
46718;BME280;32448;44.960;-0.698;2023-01-29T05:53:20;102691.91;;;2.41;100.00
46718;BME280;32448;44.960;-0.698;2023-01-29T05:55:48;102690.25;;;2.41;100.00
46718;BME280;32448;44.960;-0.698;2023-01-29T05:58:15;102696.06;;;2.39;100.00
46718;BME280;32448;44.960;-0.698;2023-01-29T06:00:43;102694.41;;;2.29;100.00
46718;BME280;32448;44.960;-0.698;2023-01-29T06:03:10;102698.34;;;2.46;100.00
46718;BME280;32448;44.960;-0.698;2023-01-29T06:05:38;102689.47;;;2.42;100.00
46718;BME280;32448;44.960;-0.698;2023-01-29T06:08:07;102686.38;;;2.36;100.00
46718;BME280;32448;44.960;-0.698;2023-01-29T06:10:34;102688.56;;;2.42;100.00
46718;BME280;32448;44.960;-0.698;2023-01-29T06:13:02;102686.56;;;2.28;100.00
46718;BME280;32448;44.960;-0.698;2023-01-29T06:15:29;102686.75;;;2.41;100.00
46718;BME280;32448;44.960;-0.698;2023-01-29T06:17:57;102686.91;;;2.32;100.00
46718;BME280;32448;44.960;-0.698;2023-01-29T06:20:24;102694.25;;;2.38;100.00
46718;BME280;32448;44.960;-0.698;2023-01-29T06:22:52;102690.81;;;2.27;100.00
46718;BME280;32448;44.960;-0.698;2023-01-29T06:25:19;102686.84;;;2.21;100.00
46718;BME280;32448;44.960;-0.698;2023-01-29T06:27:49;102694.41;;;2.29;100.00
46718;BME280;32448;44.960;-0.698;2023-01-29T06:30:17;102695.84;;;2.26;100.00
46718;BME280;32448;44.960;-0.698;2023-01-29T06:32:44;102689.94;;;2.16;100.00
46718;BME280;32448;44.960;-0.698;2023-01-29T06:35:12;102689.28;;;2.19;100.00
46718;BME280;32448;44.960;-0.698;2023-01-29T06:37:40;102696.09;;;2.29;100.00
46718;BME280;32448;44.960;-0.698;2023-01-29T06:40:07;102695.19;;;2.28;100.00
46718;BME280;32448;44.960;-0.698;2023-01-29T06:42:34;102689.78;;;2.25;100.00
46718;BME280;32448;44.960;-0.698;2023-01-29T06:45:03;102696.34;;;2.22;100.00
46718;BME280;32448;44.960;-0.698;2023-01-29T06:47:30;102698.94;;;2.32;100.00
46718;BME280;32448;44.960;-0.698;2023-01-29T06:49:58;102708.72;;;2.26;100.00
46718;BME280;32448;44.960;-0.698;2023-01-29T06:52:26;102714.16;;;2.29;100.00
46718;BME280;32448;44.960;-0.698;2023-01-29T06:54:55;102707.69;;;2.24;100.00
46718;BME280;32448;44.960;-0.698;2023-01-29T06:57:22;102717.25;;;2.25;100.00
46718;BME280;32448;44.960;-0.698;2023-01-29T06:59:50;102713.63;;;2.23;100.00
46718;BME280;32448;44.960;-0.698;2023-01-29T07:02:17;102707.34;;;2.19;100.00
46718;BME280;32448;44.960;-0.698;2023-01-29T07:04:45;102713.25;;;2.28;100.00
46718;BME280;32448;44.960;-0.698;2023-01-29T07:07:12;102710.84;;;2.19;100.00
46718;BME280;32448;44.960;-0.698;2023-01-29T07:09:40;102717.03;;;2.11;100.00
46718;BME280;32448;44.960;-0.698;2023-01-29T07:12:09;102709.41;;;2.13;100.00
46718;BME280;32448;44.960;-0.698;2023-01-29T07:14:36;102711.38;;;2.05;100.00
46718;BME280;32448;44.960;-0.698;2023-01-29T07:17:04;102722.84;;;2.09;100.00
46718;BME280;32448;44.960;-0.698;2023-01-29T07:19:32;102722.19;;;2.01;100.00
46718;BME280;32448;44.960;-0.698;2023-01-29T07:21:59;102718.22;;;1.95;100.00
46718;BME280;32448;44.960;-0.698;2023-01-29T07:24:29;102719.88;;;2.04;100.00
46718;BME280;32448;44.960;-0.698;2023-01-29T07:26:59;102739.09;;;2.08;100.00
46718;BME280;32448;44.960;-0.698;2023-01-29T07:29:26;102735.22;;;2.03;100.00
46718;BME280;32448;44.960;-0.698;2023-01-29T07:31:53;102739.47;;;2.02;100.00
46718;BME280;32448;44.960;-0.698;2023-01-29T07:34:20;102740.09;;;2.10;100.00
46718;BME280;32448;44.960;-0.698;2023-01-29T07:36:48;102739.22;;;2.09;100.00
46718;BME280;32448;44.960;-0.698;2023-01-29T07:39:18;102749.66;;;2.01;100.00
46718;BME280;32448;44.960;-0.698;2023-01-29T07:41:45;102747.59;;;2.07;100.00
46718;BME280;32448;44.960;-0.698;2023-01-29T07:44:16;102757.94;;;2.07;100.00
46718;BME280;32448;44.960;-0.698;2023-01-29T07:46:43;102758.03;;;2.18;100.00
46718;BME280;32448;44.960;-0.698;2023-01-29T07:49:10;102762.94;;;2.05;100.00
46718;BME280;32448;44.960;-0.698;2023-01-29T07:51:37;102765.41;;;1.94;100.00
46718;BME280;32448;44.960;-0.698;2023-01-29T07:54:05;102777.66;;;1.96;100.00
46718;BME280;32448;44.960;-0.698;2023-01-29T07:56:32;102776.34;;;2.01;100.00
46718;BME280;32448;44.960;-0.698;2023-01-29T07:58:59;102773.00;;;2.02;100.00
46718;BME280;32448;44.960;-0.698;2023-01-29T08:01:26;102777.38;;;2.03;100.00
46718;BME280;32448;44.960;-0.698;2023-01-29T08:03:54;102776.34;;;2.01;100.00
46718;BME280;32448;44.960;-0.698;2023-01-29T08:06:21;102776.22;;;2.10;100.00
46718;BME280;32448;44.960;-0.698;2023-01-29T08:08:48;102777.50;;;2.15;100.00
46718;BME280;32448;44.960;-0.698;2023-01-29T08:11:16;102790.00;;;2.10;100.00
46718;BME280;32448;44.960;-0.698;2023-01-29T08:13:43;102789.66;;;2.06;100.00
46718;BME280;32448;44.960;-0.698;2023-01-29T08:16:11;102795.84;;;2.08;100.00
46718;BME280;32448;44.960;-0.698;2023-01-29T08:18:39;102787.06;;;2.16;100.00
46718;BME280;32448;44.960;-0.698;2023-01-29T08:21:10;102788.34;;;2.11;100.00
46718;BME280;32448;44.960;-0.698;2023-01-29T08:23:40;102775.22;;;2.08;100.00
46718;BME280;32448;44.960;-0.698;2023-01-29T08:26:08;102782.44;;;1.92;100.00
46718;BME280;32448;44.960;-0.698;2023-01-29T08:28:36;102787.34;;;1.99;100.00
46718;BME280;32448;44.960;-0.698;2023-01-29T08:31:14;102790.41;;;2.05;100.00
46718;BME280;32448;44.960;-0.698;2023-01-29T08:33:42;102791.03;;;2.12;100.00
46718;BME280;32448;44.960;-0.698;2023-01-29T08:36:09;102800.31;;;2.10;100.00
46718;BME280;32448;44.960;-0.698;2023-01-29T08:38:37;102778.28;;;2.04;100.00
46718;BME280;32448;44.960;-0.698;2023-01-29T08:41:04;102804.84;;;2.03;100.00
46718;BME280;32448;44.960;-0.698;2023-01-29T08:43:33;102806.78;;;2.15;100.00
46718;BME280;32448;44.960;-0.698;2023-01-29T08:46:03;102810.25;;;2.26;100.00
46718;BME280;32448;44.960;-0.698;2023-01-29T08:48:31;102807.16;;;2.30;100.00
46718;BME280;32448;44.960;-0.698;2023-01-29T08:51:00;102805.09;;;2.26;100.00
46718;BME280;32448;44.960;-0.698;2023-01-29T08:53:28;102804.72;;;2.32;100.00
46718;BME280;32448;44.960;-0.698;2023-01-29T08:55:56;102816.94;;;2.34;100.00
46718;BME280;32448;44.960;-0.698;2023-01-29T08:58:23;102822.38;;;2.27;100.00
46718;BME280;32448;44.960;-0.698;2023-01-29T09:00:50;102824.03;;;2.37;100.00
46718;BME280;32448;44.960;-0.698;2023-01-29T09:03:18;102823.41;;;2.39;100.00
46718;BME280;32448;44.960;-0.698;2023-01-29T09:05:45;102833.31;;;2.45;100.00
46718;BME280;32448;44.960;-0.698;2023-01-29T09:08:12;102810.50;;;2.29;100.00
46718;BME280;32448;44.960;-0.698;2023-01-29T09:10:41;102830.09;;;2.37;100.00
46718;BME280;32448;44.960;-0.698;2023-01-29T09:13:09;102833.59;;;2.38;100.00
46718;BME280;32448;44.960;-0.698;2023-01-29T09:15:37;102837.06;;;2.38;100.00
46718;BME280;32448;44.960;-0.698;2023-01-29T09:18:04;102838.59;;;2.46;100.00
46718;BME280;32448;44.960;-0.698;2023-01-29T09:20:32;102843.38;;;2.52;100.00
46718;BME280;32448;44.960;-0.698;2023-01-29T09:23:07;102841.03;;;2.45;100.00
46718;BME280;32448;44.960;-0.698;2023-01-29T09:25:36;102830.72;;;2.45;100.00
46718;BME280;32448;44.960;-0.698;2023-01-29T09:28:04;102841.53;;;2.61;100.00
46718;BME280;32448;44.960;-0.698;2023-01-29T09:30:32;102844.13;;;2.61;100.00
46718;BME280;32448;44.960;-0.698;2023-01-29T09:33:00;102848.09;;;2.68;100.00
46718;BME280;32448;44.960;-0.698;2023-01-29T09:35:28;102846.25;;;2.77;100.00
46718;BME280;32448;44.960;-0.698;2023-01-29T09:37:55;102836.91;;;2.57;100.00
46718;BME280;32448;44.960;-0.698;2023-01-29T09:43:03;102844.47;;;2.66;100.00
46718;BME280;32448;44.960;-0.698;2023-01-29T09:45:33;102854.81;;;2.76;100.00
46718;BME280;32448;44.960;-0.698;2023-01-29T09:48:03;102856.59;;;2.87;100.00
46718;BME280;32448;44.960;-0.698;2023-01-29T09:50:37;102852.03;;;2.95;100.00
46718;BME280;32448;44.960;-0.698;2023-01-29T09:56:20;102859.28;;;2.88;100.00
46718;BME280;32448;44.960;-0.698;2023-01-29T09:58:48;102853.53;;;3.03;100.00
46718;BME280;32448;44.960;-0.698;2023-01-29T10:01:29;102856.13;;;3.03;100.00
46718;BME280;32448;44.960;-0.698;2023-01-29T10:07:16;102856.16;;;3.24;100.00
46718;BME280;32448;44.960;-0.698;2023-01-29T10:15:48;102855.53;;;3.49;100.00
46718;BME280;32448;44.960;-0.698;2023-01-29T10:18:42;102844.28;;;3.48;100.00
46718;BME280;32448;44.960;-0.698;2023-01-29T10:23:50;102850.53;;;3.40;100.00
46718;BME280;32448;44.960;-0.698;2023-01-29T10:26:22;102843.44;;;3.38;100.00
46718;BME280;32448;44.960;-0.698;2023-01-29T10:28:56;102860.38;;;3.56;100.00
46718;BME280;32448;44.960;-0.698;2023-01-29T10:31:30;102855.94;;;3.43;100.00
46718;BME280;32448;44.960;-0.698;2023-01-29T10:34:16;102835.38;;;3.45;100.00
46718;BME280;32448;44.960;-0.698;2023-01-29T10:36:48;102847.94;;;3.62;100.00
46718;BME280;32448;44.960;-0.698;2023-01-29T10:39:20;102852.03;;;3.48;100.00
46718;BME280;32448;44.960;-0.698;2023-01-29T10:50:15;102844.53;;;3.51;100.00
46718;BME280;32448;44.960;-0.698;2023-01-29T10:53:05;102831.88;;;3.66;100.00
46718;BME280;32448;44.960;-0.698;2023-01-29T10:59:05;102839.88;;;3.69;100.00
46718;BME280;32448;44.960;-0.698;2023-01-29T11:01:33;102837.03;;;3.66;100.00
46718;BME280;32448;44.960;-0.698;2023-01-29T11:04:05;102832.03;;;3.79;100.00
46718;BME280;32448;44.960;-0.698;2023-01-29T11:06:35;102830.44;;;3.70;100.00
46718;BME280;32448;44.960;-0.698;2023-01-29T11:12:02;102800.13;;;3.90;100.00
46718;BME280;32448;44.960;-0.698;2023-01-29T11:14:48;102792.84;;;3.85;100.00
46718;BME280;32448;44.960;-0.698;2023-01-29T11:17:23;102806.38;;;4.04;100.00
46718;BME280;32448;44.960;-0.698;2023-01-29T11:19:55;102792.88;;;3.96;100.00
46718;BME280;32448;44.960;-0.698;2023-01-29T11:22:33;102792.53;;;4.03;100.00
46718;BME280;32448;44.960;-0.698;2023-01-29T11:25:21;102792.50;;;3.92;100.00
46718;BME280;32448;44.960;-0.698;2023-01-29T11:27:58;102782.72;;;3.99;100.00
46718;BME280;32448;44.960;-0.698;2023-01-29T11:30:37;102786.09;;;3.98;100.00
46718;BME280;32448;44.960;-0.698;2023-01-29T11:33:18;102782.75;;;4.11;100.00
46718;BME280;32448;44.960;-0.698;2023-01-29T11:35:51;102781.31;;;4.15;100.00
46718;BME280;32448;44.960;-0.698;2023-01-29T11:41:04;102768.69;;;4.08;100.00
46718;BME280;32448;44.960;-0.698;2023-01-29T11:43:33;102762.94;;;4.00;100.00
46718;BME280;32448;44.960;-0.698;2023-01-29T11:46:04;102765.91;;;4.16;100.00
46718;BME280;32448;44.960;-0.698;2023-01-29T11:48:47;102736.28;;;4.01;100.00
46718;BME280;32448;44.960;-0.698;2023-01-29T11:51:28;102765.09;;;4.06;100.00
46718;BME280;32448;44.960;-0.698;2023-01-29T11:53:57;102757.44;;;4.07;100.00
46718;BME280;32448;44.960;-0.698;2023-01-29T11:56:34;102773.28;;;4.00;100.00
46718;BME280;32448;44.960;-0.698;2023-01-29T11:59:50;102747.88;;;4.06;100.00
46718;BME280;32448;44.960;-0.698;2023-01-29T12:02:31;102736.06;;;4.33;100.00
46718;BME280;32448;44.960;-0.698;2023-01-29T12:07:45;102734.84;;;4.51;100.00
46718;BME280;32448;44.960;-0.698;2023-01-29T12:10:38;102737.31;;;4.61;100.00
46718;BME280;32448;44.960;-0.698;2023-01-29T12:15:42;102691.72;;;4.40;100.00
46718;BME280;32448;44.960;-0.698;2023-01-29T12:18:55;102719.50;;;4.54;100.00
46718;BME280;32448;44.960;-0.698;2023-01-29T12:21:46;102709.84;;;4.63;100.00
46718;BME280;32448;44.960;-0.698;2023-01-29T12:24:39;102717.91;;;4.68;100.00
46718;BME280;32448;44.960;-0.698;2023-01-29T12:27:16;102688.28;;;4.64;100.00
46718;BME280;32448;44.960;-0.698;2023-01-29T12:30:13;102704.66;;;4.63;100.00
46718;BME280;32448;44.960;-0.698;2023-01-29T12:33:00;102685.50;;;4.61;100.00
46718;BME280;32448;44.960;-0.698;2023-01-29T12:35:37;102695.88;;;4.86;100.00
46718;BME280;32448;44.960;-0.698;2023-01-29T12:38:22;102678.16;;;4.67;100.00
46718;BME280;32448;44.960;-0.698;2023-01-29T12:41:04;102705.16;;;4.83;100.00
46718;BME280;32448;44.960;-0.698;2023-01-29T12:43:45;102712.69;;;4.91;100.00
46718;BME280;32448;44.960;-0.698;2023-01-29T12:46:29;102702.34;;;4.80;100.00
46718;BME280;32448;44.960;-0.698;2023-01-29T12:49:03;102708.53;;;4.82;100.00
46718;BME280;32448;44.960;-0.698;2023-01-29T12:51:41;102707.53;;;4.80;100.00
46718;BME280;32448;44.960;-0.698;2023-01-29T12:54:21;102703.03;;;4.77;100.00
46718;BME280;32448;44.960;-0.698;2023-01-29T12:56:59;102692.09;;;4.81;100.00
46718;BME280;32448;44.960;-0.698;2023-01-29T12:59:38;102688.78;;;4.95;100.00
46718;BME280;32448;44.960;-0.698;2023-01-29T13:07:45;102681.50;;;5.39;100.00
46718;BME280;32448;44.960;-0.698;2023-01-29T13:10:27;102671.25;;;5.16;100.00
46718;BME280;32448;44.960;-0.698;2023-01-29T13:15:44;102669.72;;;5.06;100.00
46718;BME280;32448;44.960;-0.698;2023-01-29T13:20:42;102670.69;;;5.08;100.00
46718;BME280;32448;44.960;-0.698;2023-01-29T13:23:35;102666.50;;;5.35;100.00
46718;BME280;32448;44.960;-0.698;2023-01-29T13:26:05;102649.41;;;5.64;100.00
46718;BME280;32448;44.960;-0.698;2023-01-29T13:28:35;102659.69;;;5.49;100.00
46718;BME280;32448;44.960;-0.698;2023-01-29T13:31:35;102658.34;;;5.80;100.00
46718;BME280;32448;44.960;-0.698;2023-01-29T13:34:21;102647.25;;;5.70;100.00
46718;BME280;32448;44.960;-0.698;2023-01-29T13:36:58;102647.91;;;5.54;100.00
46718;BME280;32448;44.960;-0.698;2023-01-29T13:39:35;102639.84;;;5.49;100.00
46718;BME280;32448;44.960;-0.698;2023-01-29T13:42:18;102653.22;;;5.69;100.00
46718;BME280;32448;44.960;-0.698;2023-01-29T13:44:55;102641.56;;;5.62;100.00
46718;BME280;32448;44.960;-0.698;2023-01-29T13:50:05;102618.63;;;5.30;100.00
46718;BME280;32448;44.960;-0.698;2023-01-29T13:52:53;102654.78;;;5.40;100.00
46718;BME280;32448;44.960;-0.698;2023-01-29T13:55:35;102640.44;;;5.59;100.00
46718;BME280;32448;44.960;-0.698;2023-01-29T13:58:19;102640.75;;;5.76;100.00
46718;BME280;32448;44.960;-0.698;2023-01-29T14:01:05;102645.94;;;5.63;100.00
46718;BME280;32448;44.960;-0.698;2023-01-29T14:03:43;102627.50;;;5.72;100.00
46718;BME280;32448;44.960;-0.698;2023-01-29T14:06:42;102638.25;;;5.78;100.00
46718;BME280;32448;44.960;-0.698;2023-01-29T14:09:31;102655.13;;;5.71;100.00
46718;BME280;32448;44.960;-0.698;2023-01-29T14:12:06;102648.63;;;5.65;100.00
46718;BME280;32448;44.960;-0.698;2023-01-29T14:17:35;102648.22;;;5.59;100.00
46718;BME280;32448;44.960;-0.698;2023-01-29T14:20:23;102648.00;;;5.56;100.00
46718;BME280;32448;44.960;-0.698;2023-01-29T14:26:32;102649.25;;;5.74;100.00
46718;BME280;32448;44.960;-0.698;2023-01-29T14:29:21;102649.75;;;5.81;100.00
46718;BME280;32448;44.960;-0.698;2023-01-29T14:32:10;102661.25;;;5.85;100.00
46718;BME280;32448;44.960;-0.698;2023-01-29T14:34:47;102661.78;;;5.93;100.00
46718;BME280;32448;44.960;-0.698;2023-01-29T14:37:23;102661.47;;;6.14;100.00
46718;BME280;32448;44.960;-0.698;2023-01-29T14:42:51;102650.41;;;5.66;100.00
46718;BME280;32448;44.960;-0.698;2023-01-29T14:45:37;102608.03;;;5.52;100.00
46718;BME280;32448;44.960;-0.698;2023-01-29T14:50:49;102659.81;;;5.77;100.00
46718;BME280;32448;44.960;-0.698;2023-01-29T14:58:51;102667.00;;;5.81;100.00